sensor_id;sensor_type;location;lat;lon;timestamp;P1;durP1;ratioP1;P2;durP2;ratioP2
19554;SDS011;9924;50.828;6.440;2022-08-01T00:01:38;1.75;;;0.90;;
19554;SDS011;9924;50.828;6.440;2022-08-01T00:04:04;3.45;;;1.23;;
19554;SDS011;9924;50.828;6.440;2022-08-01T00:06:30;2.08;;;1.20;;
19554;SDS011;9924;50.828;6.440;2022-08-01T00:08:56;3.42;;;1.20;;
19554;SDS011;9924;50.828;6.440;2022-08-01T00:11:21;4.78;;;1.20;;
19554;SDS011;9924;50.828;6.440;2022-08-01T00:13:47;2.85;;;1.15;;
19554;SDS011;9924;50.828;6.440;2022-08-01T00:16:13;1.92;;;1.40;;
19554;SDS011;9924;50.828;6.440;2022-08-01T00:18:39;6.18;;;1.73;;
19554;SDS011;9924;50.828;6.440;2022-08-01T00:21:05;2.20;;;1.73;;
19554;SDS011;9924;50.828;6.440;2022-08-01T00:23:30;2.75;;;1.50;;
19554;SDS011;9924;50.828;6.440;2022-08-01T00:25:56;1.65;;;1.27;;
19554;SDS011;9924;50.828;6.440;2022-08-01T00:28:22;4.90;;;1.48;;
19554;SDS011;9924;50.828;6.440;2022-08-01T00:30:48;1.27;;;1.08;;
19554;SDS011;9924;50.828;6.440;2022-08-01T00:33:14;3.95;;;1.33;;
19554;SDS011;9924;50.828;6.440;2022-08-01T00:35:39;4.78;;;1.50;;
19554;SDS011;9924;50.828;6.440;2022-08-01T00:38:05;2.47;;;1.23;;
19554;SDS011;9924;50.828;6.440;2022-08-01T00:40:31;3.13;;;1.40;;
19554;SDS011;9924;50.828;6.440;2022-08-01T00:42:57;3.40;;;1.60;;
19554;SDS011;9924;50.828;6.440;2022-08-01T00:45:22;2.88;;;1.30;;
19554;SDS011;9924;50.828;6.440;2022-08-01T00:47:48;2.78;;;1.55;;
19554;SDS011;9924;50.828;6.440;2022-08-01T00:50:14;1.65;;;1.30;;
19554;SDS011;9924;50.828;6.440;2022-08-01T00:52:40;2.72;;;1.67;;
19554;SDS011;9924;50.828;6.440;2022-08-01T00:55:07;2.75;;;1.38;;
19554;SDS011;9924;50.828;6.440;2022-08-01T00:57:36;1.42;;;1.33;;
19554;SDS011;9924;50.828;6.440;2022-08-01T01:00:03;3.17;;;1.42;;
19554;SDS011;9924;50.828;6.440;2022-08-01T01:02:31;3.08;;;1.50;;
19554;SDS011;9924;50.828;6.440;2022-08-01T01:04:57;2.80;;;1.70;;
19554;SDS011;9924;50.828;6.440;2022-08-01T01:10:17;2.45;;;1.60;;
19554;SDS011;9924;50.828;6.440;2022-08-01T01:20:41;3.30;;;1.95;;
19554;SDS011;9924;50.828;6.440;2022-08-01T01:28:35;4.68;;;2.08;;
19554;SDS011;9924;50.828;6.440;2022-08-01T01:31:24;3.40;;;2.10;;
19554;SDS011;9924;50.828;6.440;2022-08-01T01:33:51;2.53;;;1.95;;
19554;SDS011;9924;50.828;6.440;2022-08-01T01:36:19;5.28;;;2.10;;
19554;SDS011;9924;50.828;6.440;2022-08-01T01:38:46;5.30;;;3.03;;
19554;SDS011;9924;50.828;6.440;2022-08-01T01:41:14;3.95;;;2.00;;
19554;SDS011;9924;50.828;6.440;2022-08-01T01:43:42;3.13;;;2.17;;
19554;SDS011;9924;50.828;6.440;2022-08-01T01:46:11;4.60;;;1.67;;
19554;SDS011;9924;50.828;6.440;2022-08-01T01:48:40;3.83;;;2.35;;
19554;SDS011;9924;50.828;6.440;2022-08-01T01:51:09;2.13;;;1.90;;
19554;SDS011;9924;50.828;6.440;2022-08-01T01:53:37;6.13;;;2.17;;
19554;SDS011;9924;50.828;6.440;2022-08-01T01:56:05;4.15;;;2.20;;
19554;SDS011;9924;50.828;6.440;2022-08-01T01:58:33;4.72;;;2.10;;
19554;SDS011;9924;50.828;6.440;2022-08-01T03:07:51;4.22;;;2.70;;
19554;SDS011;9924;50.828;6.440;2022-08-01T03:10:18;2.80;;;2.17;;
19554;SDS011;9924;50.828;6.440;2022-08-01T03:12:45;3.00;;;2.47;;
19554;SDS011;9924;50.828;6.440;2022-08-01T03:15:13;3.13;;;2.20;;
19554;SDS011;9924;50.828;6.440;2022-08-01T03:17:40;3.53;;;2.25;;
19554;SDS011;9924;50.828;6.440;2022-08-01T03:20:08;5.60;;;2.17;;
19554;SDS011;9924;50.828;6.440;2022-08-01T03:22:38;4.82;;;2.60;;
19554;SDS011;9924;50.828;6.440;2022-08-01T03:25:05;5.97;;;2.53;;
19554;SDS011;9924;50.828;6.440;2022-08-01T03:27:33;2.78;;;2.13;;
19554;SDS011;9924;50.828;6.440;2022-08-01T03:30:02;5.78;;;2.28;;
19554;SDS011;9924;50.828;6.440;2022-08-01T03:32:30;6.63;;;2.17;;
19554;SDS011;9924;50.828;6.440;2022-08-01T03:34:56;6.10;;;2.28;;
19554;SDS011;9924;50.828;6.440;2022-08-01T03:37:27;3.97;;;2.40;;
19554;SDS011;9924;50.828;6.440;2022-08-01T03:40:05;3.85;;;2.47;;
19554;SDS011;9924;50.828;6.440;2022-08-01T03:42:47;4.85;;;2.53;;
19554;SDS011;9924;50.828;6.440;2022-08-01T03:45:25;11.15;;;2.53;;
19554;SDS011;9924;50.828;6.440;2022-08-01T03:47:56;4.78;;;2.28;;
19554;SDS011;9924;50.828;6.440;2022-08-01T03:50:26;2.25;;;2.05;;
19554;SDS011;9924;50.828;6.440;2022-08-01T03:52:53;4.53;;;2.58;;
19554;SDS011;9924;50.828;6.440;2022-08-01T03:55:22;3.45;;;2.50;;
19554;SDS011;9924;50.828;6.440;2022-08-01T03:57:49;3.60;;;2.35;;
19554;SDS011;9924;50.828;6.440;2022-08-01T04:00:16;5.63;;;2.80;;
19554;SDS011;9924;50.828;6.440;2022-08-01T04:02:46;3.97;;;2.47;;
19554;SDS011;9924;50.828;6.440;2022-08-01T04:05:14;3.83;;;2.58;;
19554;SDS011;9924;50.828;6.440;2022-08-01T04:07:46;5.20;;;2.80;;
19554;SDS011;9924;50.828;6.440;2022-08-01T04:10:15;5.43;;;2.90;;
19554;SDS011;9924;50.828;6.440;2022-08-01T04:12:41;5.78;;;3.30;;
19554;SDS011;9924;50.828;6.440;2022-08-01T04:15:07;5.00;;;2.88;;
19554;SDS011;9924;50.828;6.440;2022-08-01T04:17:33;3.83;;;2.60;;
19554;SDS011;9924;50.828;6.440;2022-08-01T04:19:59;6.38;;;2.88;;
19554;SDS011;9924;50.828;6.440;2022-08-01T04:22:25;3.83;;;2.70;;
19554;SDS011;9924;50.828;6.440;2022-08-01T04:24:53;4.75;;;2.67;;
19554;SDS011;9924;50.828;6.440;2022-08-01T04:27:22;5.43;;;3.05;;
19554;SDS011;9924;50.828;6.440;2022-08-01T04:29:54;4.85;;;2.63;;
19554;SDS011;9924;50.828;6.440;2022-08-01T04:32:23;4.18;;;2.47;;
19554;SDS011;9924;50.828;6.440;2022-08-01T04:34:52;4.55;;;3.00;;
19554;SDS011;9924;50.828;6.440;2022-08-01T04:37:21;5.00;;;2.90;;
19554;SDS011;9924;50.828;6.440;2022-08-01T04:39:48;4.75;;;2.92;;
19554;SDS011;9924;50.828;6.440;2022-08-01T04:42:18;3.63;;;2.60;;
19554;SDS011;9924;50.828;6.440;2022-08-01T04:44:44;6.70;;;2.75;;
19554;SDS011;9924;50.828;6.440;2022-08-01T04:47:10;5.00;;;2.53;;
19554;SDS011;9924;50.828;6.440;2022-08-01T04:49:38;4.57;;;2.80;;
19554;SDS011;9924;50.828;6.440;2022-08-01T04:52:06;5.35;;;2.70;;
19554;SDS011;9924;50.828;6.440;2022-08-01T04:54:33;5.82;;;2.78;;
19554;SDS011;9924;50.828;6.440;2022-08-01T04:57:02;4.43;;;2.72;;
19554;SDS011;9924;50.828;6.440;2022-08-01T04:59:29;6.10;;;2.85;;
19554;SDS011;9924;50.828;6.440;2022-08-01T05:02:12;5.88;;;3.22;;
19554;SDS011;9924;50.828;6.440;2022-08-01T05:04:40;9.07;;;2.60;;
19554;SDS011;9924;50.828;6.440;2022-08-01T05:07:07;5.10;;;2.38;;
19554;SDS011;9924;50.828;6.440;2022-08-01T05:09:33;8.10;;;3.00;;
19554;SDS011;9924;50.828;6.440;2022-08-01T05:12:00;7.10;;;2.97;;
19554;SDS011;9924;50.828;6.440;2022-08-01T05:14:28;5.68;;;2.85;;
19554;SDS011;9924;50.828;6.440;2022-08-01T05:16:57;6.90;;;2.88;;
19554;SDS011;9924;50.828;6.440;2022-08-01T05:19:31;6.18;;;3.15;;
19554;SDS011;9924;50.828;6.440;2022-08-01T05:21:58;8.85;;;3.65;;
19554;SDS011;9924;50.828;6.440;2022-08-01T05:24:28;9.00;;;4.53;;
19554;SDS011;9924;50.828;6.440;2022-08-01T05:26:57;4.40;;;3.42;;
19554;SDS011;9924;50.828;6.440;2022-08-01T05:29:23;10.18;;;4.25;;
19554;SDS011;9924;50.828;6.440;2022-08-01T05:31:50;5.05;;;3.45;;
19554;SDS011;9924;50.828;6.440;2022-08-01T05:34:17;5.80;;;3.40;;
19554;SDS011;9924;50.828;6.440;2022-08-01T05:36:43;7.35;;;3.67;;
19554;SDS011;9924;50.828;6.440;2022-08-01T05:39:09;8.18;;;3.85;;
19554;SDS011;9924;50.828;6.440;2022-08-01T05:41:36;7.20;;;4.03;;
19554;SDS011;9924;50.828;6.440;2022-08-01T05:44:03;6.65;;;4.20;;
19554;SDS011;9924;50.828;6.440;2022-08-01T05:46:30;10.02;;;4.50;;
19554;SDS011;9924;50.828;6.440;2022-08-01T05:48:56;8.57;;;4.45;;
19554;SDS011;9924;50.828;6.440;2022-08-01T05:51:22;7.13;;;4.85;;
19554;SDS011;9924;50.828;6.440;2022-08-01T05:53:48;7.53;;;4.50;;
19554;SDS011;9924;50.828;6.440;2022-08-01T05:56:14;8.77;;;5.60;;
19554;SDS011;9924;50.828;6.440;2022-08-01T05:58:39;9.63;;;5.25;;
19554;SDS011;9924;50.828;6.440;2022-08-01T06:01:05;11.25;;;6.30;;
19554;SDS011;9924;50.828;6.440;2022-08-01T06:03:31;15.82;;;8.93;;
19554;SDS011;9924;50.828;6.440;2022-08-01T06:05:58;12.73;;;7.13;;
19554;SDS011;9924;50.828;6.440;2022-08-01T06:08:24;12.15;;;8.10;;
19554;SDS011;9924;50.828;6.440;2022-08-01T06:10:50;16.80;;;7.63;;
19554;SDS011;9924;50.828;6.440;2022-08-01T06:13:16;13.27;;;7.55;;
19554;SDS011;9924;50.828;6.440;2022-08-01T06:15:43;11.55;;;7.00;;
19554;SDS011;9924;50.828;6.440;2022-08-01T06:18:10;14.70;;;7.55;;
19554;SDS011;9924;50.828;6.440;2022-08-01T06:20:36;13.52;;;6.65;;
19554;SDS011;9924;50.828;6.440;2022-08-01T06:23:02;14.73;;;7.55;;
19554;SDS011;9924;50.828;6.440;2022-08-01T06:25:28;16.90;;;6.97;;
19554;SDS011;9924;50.828;6.440;2022-08-01T06:27:54;14.45;;;7.72;;
19554;SDS011;9924;50.828;6.440;2022-08-01T06:30:20;11.02;;;6.85;;
19554;SDS011;9924;50.828;6.440;2022-08-01T06:32:46;14.77;;;7.03;;
19554;SDS011;9924;50.828;6.440;2022-08-01T06:35:12;15.93;;;6.68;;
19554;SDS011;9924;50.828;6.440;2022-08-01T06:37:40;15.88;;;6.43;;
19554;SDS011;9924;50.828;6.440;2022-08-01T06:40:07;14.10;;;6.55;;
19554;SDS011;9924;50.828;6.440;2022-08-01T06:42:35;11.02;;;6.28;;
19554;SDS011;9924;50.828;6.440;2022-08-01T06:47:31;10.02;;;5.20;;
19554;SDS011;9924;50.828;6.440;2022-08-01T06:49:57;9.70;;;5.18;;
19554;SDS011;9924;50.828;6.440;2022-08-01T06:52:24;8.88;;;4.55;;
19554;SDS011;9924;50.828;6.440;2022-08-01T06:54:50;4.93;;;3.53;;
19554;SDS011;9924;50.828;6.440;2022-08-01T06:57:17;5.28;;;4.05;;
19554;SDS011;9924;50.828;6.440;2022-08-01T06:59:43;6.82;;;3.45;;
19554;SDS011;9924;50.828;6.440;2022-08-01T07:02:09;6.80;;;3.95;;
19554;SDS011;9924;50.828;6.440;2022-08-01T07:04:35;7.38;;;3.70;;
19554;SDS011;9924;50.828;6.440;2022-08-01T07:07:01;7.30;;;4.22;;
19554;SDS011;9924;50.828;6.440;2022-08-01T07:09:27;8.02;;;3.55;;
19554;SDS011;9924;50.828;6.440;2022-08-01T07:11:53;8.90;;;4.35;;
19554;SDS011;9924;50.828;6.440;2022-08-01T07:14:20;7.63;;;4.47;;
19554;SDS011;9924;50.828;6.440;2022-08-01T07:16:47;9.00;;;6.00;;
19554;SDS011;9924;50.828;6.440;2022-08-01T07:19:13;11.00;;;6.00;;
19554;SDS011;9924;50.828;6.440;2022-08-01T07:21:40;7.38;;;5.68;;
19554;SDS011;9924;50.828;6.440;2022-08-01T07:24:07;8.30;;;5.47;;
19554;SDS011;9924;50.828;6.440;2022-08-01T07:26:35;9.63;;;6.10;;
19554;SDS011;9924;50.828;6.440;2022-08-01T07:29:01;9.85;;;5.47;;
19554;SDS011;9924;50.828;6.440;2022-08-01T07:31:28;10.05;;;5.68;;
19554;SDS011;9924;50.828;6.440;2022-08-01T07:33:54;8.85;;;5.10;;
19554;SDS011;9924;50.828;6.440;2022-08-01T07:36:20;9.73;;;5.55;;
19554;SDS011;9924;50.828;6.440;2022-08-01T07:38:47;8.13;;;5.10;;
19554;SDS011;9924;50.828;6.440;2022-08-01T07:41:14;7.30;;;5.20;;
19554;SDS011;9924;50.828;6.440;2022-08-01T07:43:40;7.95;;;5.22;;
19554;SDS011;9924;50.828;6.440;2022-08-01T07:46:06;9.55;;;5.03;;
19554;SDS011;9924;50.828;6.440;2022-08-01T07:48:35;9.75;;;5.00;;
19554;SDS011;9924;50.828;6.440;2022-08-01T07:51:01;8.60;;;5.07;;
19554;SDS011;9924;50.828;6.440;2022-08-01T07:53:28;9.13;;;5.28;;
19554;SDS011;9924;50.828;6.440;2022-08-01T07:55:56;8.50;;;5.20;;
19554;SDS011;9924;50.828;6.440;2022-08-01T07:58:22;9.40;;;4.70;;
19554;SDS011;9924;50.828;6.440;2022-08-01T08:00:48;6.72;;;4.13;;
19554;SDS011;9924;50.828;6.440;2022-08-01T08:03:14;9.50;;;4.85;;
19554;SDS011;9924;50.828;6.440;2022-08-01T08:05:42;12.18;;;4.80;;
19554;SDS011;9924;50.828;6.440;2022-08-01T08:08:08;8.07;;;5.40;;
19554;SDS011;9924;50.828;6.440;2022-08-01T08:10:35;8.48;;;5.47;;
19554;SDS011;9924;50.828;6.440;2022-08-01T08:13:02;7.70;;;5.25;;
19554;SDS011;9924;50.828;6.440;2022-08-01T08:15:28;7.18;;;4.72;;
19554;SDS011;9924;50.828;6.440;2022-08-01T08:17:55;7.05;;;4.45;;
19554;SDS011;9924;50.828;6.440;2022-08-01T08:20:21;9.57;;;5.18;;
19554;SDS011;9924;50.828;6.440;2022-08-01T08:22:50;6.97;;;4.63;;
19554;SDS011;9924;50.828;6.440;2022-08-01T08:25:18;10.63;;;4.90;;
19554;SDS011;9924;50.828;6.440;2022-08-01T08:27:45;8.60;;;4.40;;
19554;SDS011;9924;50.828;6.440;2022-08-01T08:30:11;9.45;;;4.63;;
19554;SDS011;9924;50.828;6.440;2022-08-01T08:32:38;5.60;;;4.53;;
19554;SDS011;9924;50.828;6.440;2022-08-01T08:35:04;7.18;;;4.47;;
19554;SDS011;9924;50.828;6.440;2022-08-01T08:37:32;6.22;;;4.70;;
19554;SDS011;9924;50.828;6.440;2022-08-01T08:40:02;6.20;;;4.88;;
19554;SDS011;9924;50.828;6.440;2022-08-01T08:42:29;11.02;;;5.53;;
19554;SDS011;9924;50.828;6.440;2022-08-01T08:44:55;7.80;;;5.40;;
19554;SDS011;9924;50.828;6.440;2022-08-01T08:47:22;10.20;;;6.85;;
19554;SDS011;9924;50.828;6.440;2022-08-01T08:49:51;10.20;;;6.78;;
19554;SDS011;9924;50.828;6.440;2022-08-01T08:52:18;10.20;;;7.50;;
19554;SDS011;9924;50.828;6.440;2022-08-01T08:54:46;13.27;;;8.15;;
19554;SDS011;9924;50.828;6.440;2022-08-01T08:57:13;12.00;;;7.80;;
19554;SDS011;9924;50.828;6.440;2022-08-01T08:59:40;14.75;;;7.82;;
19554;SDS011;9924;50.828;6.440;2022-08-01T09:02:08;11.07;;;7.78;;
19554;SDS011;9924;50.828;6.440;2022-08-01T09:04:36;10.45;;;8.00;;
19554;SDS011;9924;50.828;6.440;2022-08-01T09:07:04;11.82;;;7.40;;
19554;SDS011;9924;50.828;6.440;2022-08-01T09:09:30;10.65;;;7.13;;
19554;SDS011;9924;50.828;6.440;2022-08-01T09:11:56;10.93;;;7.18;;
19554;SDS011;9924;50.828;6.440;2022-08-01T09:14:22;10.85;;;7.03;;
19554;SDS011;9924;50.828;6.440;2022-08-01T09:19:27;9.38;;;7.38;;
19554;SDS011;9924;50.828;6.440;2022-08-01T09:22:04;12.27;;;6.88;;
19554;SDS011;9924;50.828;6.440;2022-08-01T09:24:32;12.30;;;8.20;;
19554;SDS011;9924;50.828;6.440;2022-08-01T09:27:00;13.23;;;7.70;;
19554;SDS011;9924;50.828;6.440;2022-08-01T09:29:41;12.18;;;7.93;;
19554;SDS011;9924;50.828;6.440;2022-08-01T09:32:06;11.50;;;7.97;;
19554;SDS011;9924;50.828;6.440;2022-08-01T09:34:32;13.23;;;7.60;;
19554;SDS011;9924;50.828;6.440;2022-08-01T09:36:59;10.40;;;7.47;;
19554;SDS011;9924;50.828;6.440;2022-08-01T09:41:57;11.10;;;6.88;;
19554;SDS011;9924;50.828;6.440;2022-08-01T09:44:41;11.40;;;7.10;;
19554;SDS011;9924;50.828;6.440;2022-08-01T09:47:08;9.55;;;7.13;;
19554;SDS011;9924;50.828;6.440;2022-08-01T09:49:36;12.10;;;7.18;;
19554;SDS011;9924;50.828;6.440;2022-08-01T09:52:36;13.57;;;7.68;;
19554;SDS011;9924;50.828;6.440;2022-08-01T09:54:56;13.02;;;6.80;;
19554;SDS011;9924;50.828;6.440;2022-08-01T09:57:25;16.55;;;7.93;;
19554;SDS011;9924;50.828;6.440;2022-08-01T09:59:54;11.15;;;6.50;;
19554;SDS011;9924;50.828;6.440;2022-08-01T10:02:27;10.98;;;6.70;;
19554;SDS011;9924;50.828;6.440;2022-08-01T10:05:07;7.95;;;5.90;;
19554;SDS011;9924;50.828;6.440;2022-08-01T10:07:35;10.35;;;5.78;;
19554;SDS011;9924;50.828;6.440;2022-08-01T10:10:19;9.18;;;6.00;;
19554;SDS011;9924;50.828;6.440;2022-08-01T10:12:45;6.18;;;4.65;;
19554;SDS011;9924;50.828;6.440;2022-08-01T10:15:13;6.15;;;4.97;;
19554;SDS011;9924;50.828;6.440;2022-08-01T10:17:41;6.28;;;4.63;;
19554;SDS011;9924;50.828;6.440;2022-08-01T10:20:15;7.75;;;5.07;;
19554;SDS011;9924;50.828;6.440;2022-08-01T10:22:42;6.65;;;4.53;;
19554;SDS011;9924;50.828;6.440;2022-08-01T10:25:09;7.85;;;4.63;;
19554;SDS011;9924;50.828;6.440;2022-08-01T10:27:35;7.38;;;4.70;;
19554;SDS011;9924;50.828;6.440;2022-08-01T10:30:03;7.60;;;4.45;;
19554;SDS011;9924;50.828;6.440;2022-08-01T10:32:33;8.60;;;4.43;;
19554;SDS011;9924;50.828;6.440;2022-08-01T10:35:00;6.57;;;4.40;;
19554;SDS011;9924;50.828;6.440;2022-08-01T10:37:27;5.45;;;4.50;;
19554;SDS011;9924;50.828;6.440;2022-08-01T10:39:53;8.50;;;4.25;;
19554;SDS011;9924;50.828;6.440;2022-08-01T10:42:20;7.85;;;5.28;;
19554;SDS011;9924;50.828;6.440;2022-08-01T10:44:46;6.85;;;5.00;;
19554;SDS011;9924;50.828;6.440;2022-08-01T10:47:13;6.88;;;5.22;;
19554;SDS011;9924;50.828;6.440;2022-08-01T10:49:47;8.30;;;5.57;;
19554;SDS011;9924;50.828;6.440;2022-08-01T10:52:19;9.00;;;5.28;;
19554;SDS011;9924;50.828;6.440;2022-08-01T10:54:46;6.60;;;4.53;;
19554;SDS011;9924;50.828;6.440;2022-08-01T10:57:12;5.60;;;4.40;;
19554;SDS011;9924;50.828;6.440;2022-08-01T10:59:49;7.90;;;4.55;;
19554;SDS011;9924;50.828;6.440;2022-08-01T11:02:27;7.10;;;4.28;;
19554;SDS011;9924;50.828;6.440;2022-08-01T11:04:55;5.78;;;4.47;;
19554;SDS011;9924;50.828;6.440;2022-08-01T11:07:45;6.63;;;4.10;;
19554;SDS011;9924;50.828;6.440;2022-08-01T11:10:19;8.95;;;4.75;;
19554;SDS011;9924;50.828;6.440;2022-08-01T11:12:50;8.95;;;4.78;;
19554;SDS011;9924;50.828;6.440;2022-08-01T11:15:17;7.20;;;3.95;;
19554;SDS011;9924;50.828;6.440;2022-08-01T11:17:53;8.32;;;4.80;;
19554;SDS011;9924;50.828;6.440;2022-08-01T11:20:26;5.80;;;3.88;;
19554;SDS011;9924;50.828;6.440;2022-08-01T11:25:27;5.25;;;3.45;;
19554;SDS011;9924;50.828;6.440;2022-08-01T11:30:44;4.25;;;3.00;;
19554;SDS011;9924;50.828;6.440;2022-08-01T11:33:15;2.65;;;2.42;;
19554;SDS011;9924;50.828;6.440;2022-08-01T11:38:37;2.97;;;2.40;;
19554;SDS011;9924;50.828;6.440;2022-08-01T11:41:20;3.03;;;2.03;;
19554;SDS011;9924;50.828;6.440;2022-08-01T11:46:48;3.33;;;2.30;;
19554;SDS011;9924;50.828;6.440;2022-08-01T11:49:24;2.55;;;2.35;;
19554;SDS011;9924;50.828;6.440;2022-08-01T11:54:29;3.38;;;2.70;;
19554;SDS011;9924;50.828;6.440;2022-08-01T11:57:00;3.17;;;2.88;;
19554;SDS011;9924;50.828;6.440;2022-08-01T11:59:43;3.47;;;2.58;;
19554;SDS011;9924;50.828;6.440;2022-08-01T12:02:22;4.15;;;3.25;;
19554;SDS011;9924;50.828;6.440;2022-08-01T12:05:03;4.38;;;3.13;;
19554;SDS011;9924;50.828;6.440;2022-08-01T12:07:35;5.40;;;3.13;;
19554;SDS011;9924;50.828;6.440;2022-08-01T12:10:15;3.90;;;2.80;;
19554;SDS011;9924;50.828;6.440;2022-08-01T12:12:52;3.53;;;2.67;;
19554;SDS011;9924;50.828;6.440;2022-08-01T12:15:21;3.25;;;2.72;;
19554;SDS011;9924;50.828;6.440;2022-08-01T12:17:49;6.65;;;3.35;;
19554;SDS011;9924;50.828;6.440;2022-08-01T12:20:19;5.03;;;3.30;;
19554;SDS011;9924;50.828;6.440;2022-08-01T12:22:47;4.22;;;2.78;;
19554;SDS011;9924;50.828;6.440;2022-08-01T12:25:19;4.35;;;2.92;;
19554;SDS011;9924;50.828;6.440;2022-08-01T12:27:51;2.78;;;2.35;;
19554;SDS011;9924;50.828;6.440;2022-08-01T12:30:19;2.88;;;2.33;;
19554;SDS011;9924;50.828;6.440;2022-08-01T12:32:50;3.78;;;2.13;;
19554;SDS011;9924;50.828;6.440;2022-08-01T12:35:18;2.10;;;1.90;;
19554;SDS011;9924;50.828;6.440;2022-08-01T12:37:49;2.60;;;1.98;;
19554;SDS011;9924;50.828;6.440;2022-08-01T12:40:20;3.33;;;2.15;;
19554;SDS011;9924;50.828;6.440;2022-08-01T12:42:58;3.47;;;1.92;;
19554;SDS011;9924;50.828;6.440;2022-08-01T12:45:34;3.45;;;2.25;;
19554;SDS011;9924;50.828;6.440;2022-08-01T12:48:11;3.08;;;2.00;;
19554;SDS011;9924;50.828;6.440;2022-08-01T12:50:43;2.25;;;2.05;;
19554;SDS011;9924;50.828;6.440;2022-08-01T12:53:11;2.95;;;2.17;;
19554;SDS011;9924;50.828;6.440;2022-08-01T12:58:15;3.78;;;2.40;;
19554;SDS011;9924;50.828;6.440;2022-08-01T13:00:43;3.65;;;2.42;;
19554;SDS011;9924;50.828;6.440;2022-08-01T13:03:12;3.08;;;2.50;;
19554;SDS011;9924;50.828;6.440;2022-08-01T13:08:15;3.28;;;2.50;;
19554;SDS011;9924;50.828;6.440;2022-08-01T13:10:42;4.93;;;2.88;;
19554;SDS011;9924;50.828;6.440;2022-08-01T13:13:09;2.60;;;2.30;;
19554;SDS011;9924;50.828;6.440;2022-08-01T13:15:37;3.92;;;2.47;;
19554;SDS011;9924;50.828;6.440;2022-08-01T13:21:19;3.75;;;2.53;;
19554;SDS011;9924;50.828;6.440;2022-08-01T13:26:48;2.40;;;2.20;;
19554;SDS011;9924;50.828;6.440;2022-08-01T13:29:36;2.90;;;2.08;;
19554;SDS011;9924;50.828;6.440;2022-08-01T13:32:13;4.03;;;2.42;;
19554;SDS011;9924;50.828;6.440;2022-08-01T13:34:42;4.18;;;2.03;;
19554;SDS011;9924;50.828;6.440;2022-08-01T13:37:09;4.10;;;2.28;;
19554;SDS011;9924;50.828;6.440;2022-08-01T13:39:35;2.50;;;2.30;;
19554;SDS011;9924;50.828;6.440;2022-08-01T13:42:11;3.35;;;1.95;;
19554;SDS011;9924;50.828;6.440;2022-08-01T13:44:42;2.47;;;2.28;;
19554;SDS011;9924;50.828;6.440;2022-08-01T13:47:11;2.45;;;2.03;;
19554;SDS011;9924;50.828;6.440;2022-08-01T13:49:38;2.33;;;1.75;;
19554;SDS011;9924;50.828;6.440;2022-08-01T13:52:04;2.17;;;1.80;;
19554;SDS011;9924;50.828;6.440;2022-08-01T13:54:33;2.97;;;2.17;;
19554;SDS011;9924;50.828;6.440;2022-08-01T13:56:59;2.97;;;1.83;;
19554;SDS011;9924;50.828;6.440;2022-08-01T13:59:25;1.90;;;1.70;;
19554;SDS011;9924;50.828;6.440;2022-08-01T14:01:51;2.92;;;1.85;;
19554;SDS011;9924;50.828;6.440;2022-08-01T14:04:17;2.67;;;1.70;;
19554;SDS011;9924;50.828;6.440;2022-08-01T14:06:43;2.95;;;1.80;;
19554;SDS011;9924;50.828;6.440;2022-08-01T14:09:09;3.75;;;1.67;;
19554;SDS011;9924;50.828;6.440;2022-08-01T14:11:35;3.92;;;1.70;;
19554;SDS011;9924;50.828;6.440;2022-08-01T14:14:01;2.58;;;1.50;;
19554;SDS011;9924;50.828;6.440;2022-08-01T14:16:27;2.33;;;1.50;;
19554;SDS011;9924;50.828;6.440;2022-08-01T14:18:53;1.95;;;1.50;;
19554;SDS011;9924;50.828;6.440;2022-08-01T14:21:19;1.60;;;1.50;;
19554;SDS011;9924;50.828;6.440;2022-08-01T14:23:45;1.60;;;1.45;;
19554;SDS011;9924;50.828;6.440;2022-08-01T14:26:11;1.88;;;1.50;;
19554;SDS011;9924;50.828;6.440;2022-08-01T14:28:38;1.58;;;1.48;;
19554;SDS011;9924;50.828;6.440;2022-08-01T14:31:05;1.50;;;1.38;;
19554;SDS011;9924;50.828;6.440;2022-08-01T14:33:31;3.28;;;1.42;;
19554;SDS011;9924;50.828;6.440;2022-08-01T14:35:57;1.60;;;1.20;;
19554;SDS011;9924;50.828;6.440;2022-08-01T14:38:23;6.57;;;1.33;;
19554;SDS011;9924;50.828;6.440;2022-08-01T14:40:49;2.20;;;1.50;;
19554;SDS011;9924;50.828;6.440;2022-08-01T14:43:18;1.73;;;1.25;;
19554;SDS011;9924;50.828;6.440;2022-08-01T14:45:44;2.30;;;1.48;;
19554;SDS011;9924;50.828;6.440;2022-08-01T14:48:14;2.85;;;1.52;;
19554;SDS011;9924;50.828;6.440;2022-08-01T14:50:43;1.55;;;1.30;;
19554;SDS011;9924;50.828;6.440;2022-08-01T14:53:09;1.50;;;1.30;;
19554;SDS011;9924;50.828;6.440;2022-08-01T14:55:35;1.33;;;1.17;;
19554;SDS011;9924;50.828;6.440;2022-08-01T14:58:01;2.72;;;1.30;;
19554;SDS011;9924;50.828;6.440;2022-08-01T15:00:28;1.83;;;1.30;;
19554;SDS011;9924;50.828;6.440;2022-08-01T15:02:55;1.52;;;1.23;;
19554;SDS011;9924;50.828;6.440;2022-08-01T15:05:21;2.42;;;1.30;;
19554;SDS011;9924;50.828;6.440;2022-08-01T15:07:53;1.70;;;1.60;;
19554;SDS011;9924;50.828;6.440;2022-08-01T15:10:19;2.75;;;1.17;;
19554;SDS011;9924;50.828;6.440;2022-08-01T15:12:46;1.60;;;1.50;;
19554;SDS011;9924;50.828;6.440;2022-08-01T15:15:12;2.30;;;1.20;;
19554;SDS011;9924;50.828;6.440;2022-08-01T15:17:38;2.25;;;1.58;;
19554;SDS011;9924;50.828;6.440;2022-08-01T15:20:05;1.45;;;1.35;;
19554;SDS011;9924;50.828;6.440;2022-08-01T15:22:32;1.50;;;1.30;;
19554;SDS011;9924;50.828;6.440;2022-08-01T15:24:59;2.47;;;1.50;;
19554;SDS011;9924;50.828;6.440;2022-08-01T15:27:26;1.30;;;1.20;;
19554;SDS011;9924;50.828;6.440;2022-08-01T15:29:53;2.85;;;1.70;;
19554;SDS011;9924;50.828;6.440;2022-08-01T15:32:20;2.22;;;1.50;;
19554;SDS011;9924;50.828;6.440;2022-08-01T15:34:46;1.38;;;1.27;;
19554;SDS011;9924;50.828;6.440;2022-08-01T15:37:13;3.20;;;1.40;;
19554;SDS011;9924;50.828;6.440;2022-08-01T15:39:39;1.98;;;1.50;;
19554;SDS011;9924;50.828;6.440;2022-08-01T15:42:08;2.20;;;1.50;;
19554;SDS011;9924;50.828;6.440;2022-08-01T15:44:36;2.90;;;1.55;;
19554;SDS011;9924;50.828;6.440;2022-08-01T15:47:05;2.65;;;1.40;;
19554;SDS011;9924;50.828;6.440;2022-08-01T15:49:34;2.05;;;1.55;;
19554;SDS011;9924;50.828;6.440;2022-08-01T15:52:20;2.17;;;1.50;;
19554;SDS011;9924;50.828;6.440;2022-08-01T15:54:47;2.72;;;1.33;;
19554;SDS011;9924;50.828;6.440;2022-08-01T15:57:14;1.65;;;1.17;;
19554;SDS011;9924;50.828;6.440;2022-08-01T15:59:40;2.78;;;1.67;;
19554;SDS011;9924;50.828;6.440;2022-08-01T16:02:06;1.75;;;1.30;;
19554;SDS011;9924;50.828;6.440;2022-08-01T16:04:32;1.58;;;1.20;;
19554;SDS011;9924;50.828;6.440;2022-08-01T16:06:58;2.40;;;1.50;;
19554;SDS011;9924;50.828;6.440;2022-08-01T16:09:24;2.33;;;1.40;;
19554;SDS011;9924;50.828;6.440;2022-08-01T16:11:51;6.13;;;1.60;;
19554;SDS011;9924;50.828;6.440;2022-08-01T16:14:17;2.58;;;1.45;;
19554;SDS011;9924;50.828;6.440;2022-08-01T16:16:45;6.10;;;1.63;;
19554;SDS011;9924;50.828;6.440;2022-08-01T16:19:11;4.30;;;1.60;;
19554;SDS011;9924;50.828;6.440;2022-08-01T16:21:38;1.85;;;1.52;;
19554;SDS011;9924;50.828;6.440;2022-08-01T16:24:04;1.80;;;1.42;;
19554;SDS011;9924;50.828;6.440;2022-08-01T16:26:30;2.30;;;1.20;;
19554;SDS011;9924;50.828;6.440;2022-08-01T16:28:56;1.90;;;1.30;;
19554;SDS011;9924;50.828;6.440;2022-08-01T16:31:22;1.30;;;1.20;;
19554;SDS011;9924;50.828;6.440;2022-08-01T16:33:48;2.92;;;1.38;;
19554;SDS011;9924;50.828;6.440;2022-08-01T16:36:14;2.08;;;1.40;;
19554;SDS011;9924;50.828;6.440;2022-08-01T16:38:40;2.08;;;1.48;;
19554;SDS011;9924;50.828;6.440;2022-08-01T16:41:07;2.55;;;1.33;;
19554;SDS011;9924;50.828;6.440;2022-08-01T16:43:33;2.95;;;1.40;;
19554;SDS011;9924;50.828;6.440;2022-08-01T16:45:59;4.93;;;1.52;;
19554;SDS011;9924;50.828;6.440;2022-08-01T16:48:25;2.80;;;1.42;;
19554;SDS011;9924;50.828;6.440;2022-08-01T16:50:51;2.85;;;1.42;;
19554;SDS011;9924;50.828;6.440;2022-08-01T16:53:18;7.63;;;1.85;;
19554;SDS011;9924;50.828;6.440;2022-08-01T16:55:44;2.05;;;1.25;;
19554;SDS011;9924;50.828;6.440;2022-08-01T16:58:18;3.03;;;1.50;;
19554;SDS011;9924;50.828;6.440;2022-08-01T17:00:45;3.35;;;1.50;;
19554;SDS011;9924;50.828;6.440;2022-08-01T17:03:12;2.40;;;1.20;;